Time,TemperatureF,DewpointF,PressureIn,WindDirection,WindDirectionDegrees,WindSpeedMPH,WindSpeedGustMPH,Humidity,HourlyPrecipIn,Conditions,Clouds,dailyrainin,SoftwareType,DateUTC
2013-09-08 00:00:00,54.9,44.5,29.84,NNW,338,2.0,15.0,68,0.00,,---,0.00,VWS V14.01,2013-09-08 07:00:00,
2013-09-08 00:30:00,55.1,44.7,29.83,NW,315,8.0,18.0,68,0.00,,---,0.00,VWS V14.01,2013-09-08 07:30:00,
2013-09-08 01:00:00,55.3,44.9,29.83,NW,315,16.0,23.0,68,0.00,,---,0.00,VWS V14.01,2013-09-08 08:00:00,
2013-09-08 01:30:00,54.6,44.3,29.83,NW,315,16.0,24.0,68,0.00,,---,0.00,VWS V14.01,2013-09-08 08:30:00,
2013-09-08 02:00:00,54.4,44.1,29.83,NW,315,13.0,23.0,68,0.00,,---,0.00,VWS V14.01,2013-09-08 09:00:00,
2013-09-08 02:30:00,54.8,44.5,29.84,NW,315,9.0,20.0,68,0.00,,---,0.00,VWS V14.01,2013-09-08 09:30:00,
2013-09-08 03:00:00,55.1,44.7,29.83,NW,315,4.0,15.0,68,0.00,,---,0.00,VWS V14.01,2013-09-08 10:00:00,
2013-09-08 03:30:00,55.2,44.8,29.84,West,270,0.0,7.0,68,0.00,,---,0.00,VWS V14.01,2013-09-08 10:30:00,
2013-09-08 04:00:00,54.9,44.5,29.83,NW,315,9.0,17.0,68,0.00,,---,0.00,VWS V14.01,2013-09-08 11:00:00,
2013-09-08 04:30:00,54.5,44.2,29.83,NW,315,5.0,16.0,68,0.00,,---,0.00,VWS V14.01,2013-09-08 11:30:00,
2013-09-08 05:00:00,54.7,44.4,29.83,WNW,292,2.0,12.0,68,0.00,,---,0.00,VWS V14.01,2013-09-08 12:00:00,
2013-09-08 05:30:00,54.6,44.3,29.83,North,0,0.0,7.0,68,0.00,,---,0.00,VWS V14.01,2013-09-08 12:30:00,
2013-09-08 06:00:00,54.4,44.1,29.83,North,0,0.0,0.0,68,0.00,,---,0.00,VWS V14.01,2013-09-08 13:00:00,
2013-09-08 06:30:00,54.3,44.0,29.84,WNW,292,0.0,5.0,68,0.00,,---,0.00,VWS V14.01,2013-09-08 13:30:00,
2013-09-08 07:00:00,54.0,44.1,29.84,WNW,292,1.0,14.0,69,0.00,,---,0.00,VWS V14.01,2013-09-08 14:00:00,
2013-09-08 07:30:00,54.7,44.4,29.85,NW,315,3.0,13.0,68,0.00,,---,0.00,VWS V14.01,2013-09-08 14:30:00,
2013-09-08 08:00:00,55.5,45.1,29.85,NW,315,2.0,11.0,68,0.00,,---,0.00,VWS V14.01,2013-09-08 15:00:00,
2013-09-08 08:30:00,55.8,45.4,29.85,NW,315,4.0,13.0,68,0.00,,---,0.00,VWS V14.01,2013-09-08 15:30:00,
2013-09-08 09:00:00,56.2,45.8,29.86,NW,315,5.0,14.0,68,0.00,,---,0.00,VWS V14.01,2013-09-08 16:00:00,
2013-09-08 09:30:00,57.8,46.9,29.85,NW,315,1.0,9.0,67,0.00,,---,0.00,VWS V14.01,2013-09-08 16:30:00,
2013-09-08 10:00:00,61.8,50.3,29.86,SSW,202,0.0,4.0,66,0.00,,---,0.00,VWS V14.01,2013-09-08 17:00:00,
2013-09-08 10:30:00,68.9,61.0,29.86,SSE,158,0.0,4.0,76,0.00,,---,0.00,VWS V14.01,2013-09-08 17:30:00,
2013-09-08 11:00:00,70.1,61.0,29.85,SSE,158,0.0,5.0,73,0.00,,---,0.00,VWS V14.01,2013-09-08 18:00:00,
2013-09-08 11:30:00,69.0,60.0,29.85,West,270,1.0,6.0,73,0.00,,---,0.00,VWS V14.01,2013-09-08 18:30:00,
2013-09-08 12:00:00,64.9,58.9,29.84,NW,315,5.0,13.0,81,0.00,,---,0.00,VWS V14.01,2013-09-08 19:00:00,
2013-09-08 12:30:00,65.1,58.8,29.84,NW,315,8.0,15.0,80,0.00,,---,0.00,VWS V14.01,2013-09-08 19:30:00,
2013-09-08 13:00:00,64.2,58.9,29.83,NW,315,8.0,17.0,83,0.00,,---,0.00,VWS V14.01,2013-09-08 20:00:00,
2013-09-08 13:30:00,64.7,59.1,29.82,NW,315,10.0,17.0,82,0.00,,---,0.00,VWS V14.01,2013-09-08 20:30:00,
2013-09-08 14:00:00,64.4,58.8,29.81,NW,315,10.0,18.0,82,0.00,,---,0.00,VWS V14.01,2013-09-08 21:00:00,
2013-09-08 14:30:00,62.9,58.7,29.81,NW,315,13.0,21.0,86,0.00,,---,0.00,VWS V14.01,2013-09-08 21:30:00,
2013-09-08 15:00:00,62.7,58.5,29.79,NW,315,15.0,24.0,86,0.00,,---,0.00,VWS V14.01,2013-09-08 22:00:00,
2013-09-08 15:30:00,63.8,58.5,29.78,NW,315,16.0,24.0,83,0.00,,---,0.00,VWS V14.01,2013-09-08 22:30:00,
2013-09-08 16:00:00,65.0,58.0,29.77,NW,315,16.0,23.0,78,0.00,,---,0.00,VWS V14.01,2013-09-08 23:00:00,
2013-09-08 16:30:00,62.9,57.3,29.76,NW,315,17.0,23.0,82,0.00,,---,0.00,VWS V14.01,2013-09-08 23:30:00,
2013-09-08 17:00:00,62.3,57.4,29.75,NW,315,18.0,25.0,84,0.00,,---,0.00,VWS V14.01,2013-09-09 00:00:00,
2013-09-08 17:30:00,59.6,55.7,29.75,NW,315,20.0,26.0,87,0.00,,---,0.00,VWS V14.01,2013-09-09 00:30:00,
2013-09-08 18:00:00,58.2,54.4,29.75,NW,315,20.0,27.0,87,0.00,,---,0.00,VWS V14.01,2013-09-09 01:00:00,
2013-09-08 18:30:00,56.7,52.9,29.75,NW,315,19.0,26.0,87,0.00,,---,0.00,VWS V14.01,2013-09-09 01:30:00,
2013-09-08 19:00:00,55.7,51.6,29.74,NW,315,18.0,25.0,86,0.00,,---,0.00,VWS V14.01,2013-09-09 02:00:00,
2013-09-08 19:30:00,56.7,52.9,29.74,NW,315,19.0,25.0,87,0.00,,---,0.00,VWS V14.01,2013-09-09 02:30:00,
2013-09-08 20:00:00,55.9,52.1,29.74,NW,315,19.0,25.0,87,0.00,,---,0.00,VWS V14.01,2013-09-09 03:00:00,
2013-09-08 20:30:00,55.4,51.3,29.75,NW,315,17.0,25.0,86,0.00,,---,0.00,VWS V14.01,2013-09-09 03:30:00,
2013-09-08 21:00:00,57.8,54.0,29.76,NW,315,15.0,22.0,87,0.00,,---,0.00,VWS V14.01,2013-09-09 04:00:00,
2013-09-08 21:30:00,55.8,52.3,29.77,NW,315,10.0,17.0,88,0.00,,---,0.00,VWS V14.01,2013-09-09 04:30:00,
2013-09-08 22:00:00,55.2,50.8,29.78,NW,315,5.0,14.0,85,0.00,,---,0.00,VWS V14.01,2013-09-09 05:00:00,
2013-09-08 22:30:00,53.8,47.8,29.77,NW,315,7.0,19.0,80,0.00,,---,0.00,VWS V14.01,2013-09-09 05:30:00,
2013-09-08 23:00:00,54.9,49.5,29.78,NW,315,4.0,21.0,82,0.00,,---,0.00,VWS V14.01,2013-09-09 06:00:00,
2013-09-08 23:30:00,55.5,50.4,29.78,NW,315,3.0,18.0,83,0.00,,---,0.00,VWS V14.01,2013-09-09 06:30:00,